createdAt,value
2023-03-26T00:02:31.943Z,0.22
2023-03-26T00:05:34.718Z,0.45
2023-03-26T00:08:38.716Z,0.25
2023-03-26T00:11:41.757Z,4.07
2023-03-26T00:14:45.244Z,0.57
2023-03-26T00:17:48.009Z,2.10
2023-03-26T00:20:51.827Z,1.45
2023-03-26T00:23:56.707Z,1.20
2023-03-26T00:26:59.992Z,1.40
2023-03-26T00:30:05.430Z,2.35
2023-03-26T00:33:08.448Z,1.08
2023-03-26T00:36:16.877Z,0.73
2023-03-26T00:39:20.143Z,0.43
2023-03-26T00:42:22.759Z,0.47
2023-03-26T00:45:25.732Z,0.43
2023-03-26T00:48:42.244Z,0.60
2023-03-26T00:51:47.480Z,0.65
2023-03-26T00:54:53.457Z,0.63
2023-03-26T00:57:56.835Z,1.38
2023-03-26T01:01:05.940Z,1.17
2023-03-26T01:04:31.703Z,0.70
2023-03-26T01:07:35.555Z,0.85
2023-03-26T01:10:39.035Z,0.65
2023-03-26T01:13:52.147Z,2.75
2023-03-26T01:16:57.524Z,1.17
2023-03-26T01:20:08.555Z,5.20
2023-03-26T01:23:11.423Z,4.15
2023-03-26T01:26:36.685Z,2.33
2023-03-26T01:29:45.500Z,5.05
2023-03-26T01:33:30.545Z,6.25
2023-03-26T01:36:42.955Z,2.58
2023-03-26T01:39:53.556Z,2.08
2023-03-26T01:43:01.847Z,3.25
2023-03-26T01:46:07.756Z,3.22
2023-03-26T01:49:13.864Z,2.92
2023-03-26T01:52:21.142Z,4.07
2023-03-26T01:58:40.618Z,2.70
2023-03-26T02:02:05.398Z,1.58
2023-03-26T02:05:11.117Z,1.90
2023-03-26T02:08:42.052Z,2.13
2023-03-26T02:11:45.640Z,2.70
2023-03-26T02:14:48.562Z,1.13
2023-03-26T02:17:52.543Z,1.17
2023-03-26T02:20:56.008Z,8.02
2023-03-26T02:24:03.442Z,1.67
2023-03-26T02:27:08.944Z,1.77
2023-03-26T02:30:16.438Z,1.45
2023-03-26T02:33:21.919Z,2.13
2023-03-26T02:36:27.691Z,1.90
2023-03-26T02:39:34.319Z,3.25
2023-03-26T02:42:45.159Z,2.63
2023-03-26T02:45:47.963Z,2.30
2023-03-26T02:49:20.630Z,0.60
2023-03-26T02:52:23.341Z,2.47
2023-03-26T02:55:27.738Z,2.67
2023-03-26T02:58:33.895Z,2.92
2023-03-26T03:01:36.748Z,2.88
2023-03-26T03:04:39.873Z,1.30
2023-03-26T03:07:42.611Z,0.77
2023-03-26T03:10:56.222Z,0.68
2023-03-26T03:14:08.490Z,0.82
2023-03-26T03:17:11.592Z,2.10
2023-03-26T03:20:14.276Z,3.10
2023-03-26T03:23:17.562Z,1.48
2023-03-26T03:26:23.387Z,2.05
2023-03-26T03:29:28.721Z,3.00
2023-03-26T03:32:34.070Z,5.10
2023-03-26T03:35:41.851Z,2.97
2023-03-26T03:38:44.802Z,0.70
2023-03-26T03:41:51.376Z,3.88
2023-03-26T03:44:54.244Z,2.03
2023-03-26T03:48:26.919Z,1.30
2023-03-26T03:51:29.842Z,1.55
2023-03-26T03:54:35.074Z,0.32
2023-03-26T03:57:49.599Z,0.98
2023-03-26T04:01:01.120Z,2.35
2023-03-26T04:04:33.114Z,0.88
2023-03-26T04:07:40.784Z,1.40
2023-03-26T04:10:44.939Z,4.47
2023-03-26T04:13:47.506Z,11.40
2023-03-26T04:17:08.913Z,3.45
2023-03-26T04:20:16.556Z,1.40
2023-03-26T04:23:25.234Z,1.60
2023-03-26T04:26:34.011Z,1.15
2023-03-26T04:29:43.535Z,4.50
2023-03-26T04:32:52.099Z,0.50
2023-03-26T04:35:55.048Z,1.38
2023-03-26T04:39:02.620Z,1.10
2023-03-26T04:42:25.199Z,2.47
2023-03-26T04:45:40.320Z,1.48
2023-03-26T04:48:42.981Z,1.23
2023-03-26T04:51:47.530Z,1.10
2023-03-26T04:55:18.848Z,0.85
2023-03-26T04:58:32.951Z,1.30
2023-03-26T05:01:38.129Z,0.88
2023-03-26T05:04:44.121Z,1.65
2023-03-26T05:07:47.203Z,0.73
2023-03-26T05:10:53.633Z,1.58
2023-03-26T05:14:04.843Z,3.65
2023-03-26T05:17:11.202Z,1.98
2023-03-26T05:23:23.887Z,3.13
2023-03-26T05:29:44.172Z,1.65
2023-03-26T05:32:52.291Z,2.53
2023-03-26T05:36:01.790Z,2.92
2023-03-26T05:39:06.947Z,6.53
2023-03-26T05:42:48.413Z,0.82
2023-03-26T05:46:09.625Z,2.45
2023-03-26T05:49:13.663Z,1.08
2023-03-26T05:52:19.253Z,3.80
2023-03-26T05:55:58.306Z,3.97
2023-03-26T05:59:19.666Z,1.42
2023-03-26T06:02:43.329Z,1.63
2023-03-26T06:06:07.644Z,5.85
2023-03-26T06:09:19.098Z,10.55
2023-03-26T06:12:22.580Z,8.32
2023-03-26T06:15:25.756Z,20.10
2023-03-26T06:18:43.950Z,21.38
2023-03-26T06:22:07.608Z,32.53
2023-03-26T06:25:35.441Z,11.48
2023-03-26T06:29:04.701Z,12.90
2023-03-26T06:32:27.870Z,3.78
2023-03-26T06:35:39.525Z,3.70
2023-03-26T06:38:42.265Z,3.35
2023-03-26T06:41:46.095Z,3.40
2023-03-26T06:44:59.331Z,15.43
2023-03-26T06:48:11.180Z,13.25
2023-03-26T06:51:31.450Z,7.90
2023-03-26T06:54:57.014Z,7.30
2023-03-26T06:58:20.896Z,4.32
2023-03-26T07:01:42.253Z,4.25
2023-03-26T07:05:03.862Z,4.22
2023-03-26T07:08:26.477Z,2.95
2023-03-26T07:12:08.173Z,4.18
2023-03-26T07:15:29.804Z,3.63
2023-03-26T07:18:51.957Z,0.80
2023-03-26T07:25:21.326Z,2.65
2023-03-26T07:29:04.019Z,1.40
2023-03-26T07:32:38.669Z,5.20
2023-03-26T07:36:30.456Z,3.50
2023-03-26T07:40:04.313Z,1.90
2023-03-26T07:44:03.607Z,3.13
2023-03-26T07:47:32.970Z,2.17
2023-03-26T07:51:00.381Z,1.88
2023-03-26T07:54:22.023Z,2.67
2023-03-26T07:58:22.934Z,4.53
2023-03-26T08:02:32.194Z,3.90
2023-03-26T08:05:59.431Z,1.75
2023-03-26T08:09:17.274Z,5.38
2023-03-26T08:12:47.378Z,4.55
2023-03-26T08:16:19.824Z,2.30
2023-03-26T08:19:34.837Z,5.22
2023-03-26T08:22:46.409Z,3.92
2023-03-26T08:26:20.137Z,1.75
2023-03-26T08:29:27.126Z,2.92
2023-03-26T08:32:30.707Z,2.17
2023-03-26T08:35:35.628Z,2.20
2023-03-26T08:38:38.793Z,4.03
2023-03-26T08:41:56.909Z,2.78
2023-03-26T08:45:21.037Z,3.00
2023-03-26T08:49:13.231Z,3.10
2023-03-26T08:52:16.346Z,4.13
2023-03-26T08:55:41.166Z,2.70
2023-03-26T08:59:21.850Z,3.30
2023-03-26T09:03:03.061Z,3.80
2023-03-26T09:06:18.672Z,4.18
2023-03-26T09:09:37.551Z,5.00
2023-03-26T09:12:46.336Z,1.52
2023-03-26T09:16:24.529Z,3.13
2023-03-26T09:19:39.116Z,3.28
2023-03-26T09:23:19.093Z,3.53
2023-03-26T09:26:41.987Z,3.47
2023-03-26T09:30:18.329Z,3.72
2023-03-26T09:33:28.834Z,4.15
2023-03-26T09:37:24.150Z,2.67
2023-03-26T09:40:53.293Z,3.50
2023-03-26T09:44:24.061Z,4.50
2023-03-26T09:47:36.116Z,3.42
2023-03-26T09:51:01.300Z,3.40
2023-03-26T09:54:35.357Z,3.28
2023-03-26T09:57:54.054Z,2.58
2023-03-26T10:01:21.039Z,5.00
2023-03-26T10:04:45.517Z,2.67
2023-03-26T10:08:15.086Z,2.60
2023-03-26T10:14:54.095Z,3.30
2023-03-26T10:18:27.168Z,3.20
2023-03-26T10:21:58.102Z,1.65
2023-03-26T10:25:08.687Z,1.55
2023-03-26T10:28:28.443Z,0.55
2023-03-26T10:31:37.229Z,2.97
2023-03-26T10:35:16.353Z,2.28
2023-03-26T10:38:36.657Z,2.30
2023-03-26T10:41:58.919Z,2.83
2023-03-26T10:45:24.918Z,0.80
2023-03-26T10:48:52.410Z,0.50
2023-03-26T10:51:59.709Z,0.77
2023-03-26T10:55:12.964Z,2.80
2023-03-26T10:58:48.715Z,2.63
2023-03-26T11:02:19.277Z,3.50
2023-03-26T11:06:07.262Z,6.70
2023-03-26T11:09:22.202Z,1.80
2023-03-26T11:12:46.329Z,1.15
2023-03-26T11:16:16.907Z,3.15
2023-03-26T11:20:00.659Z,12.85
2023-03-26T11:23:31.492Z,2.67
2023-03-26T11:27:20.930Z,1.05
2023-03-26T11:30:48.506Z,1.65
2023-03-26T11:33:55.995Z,2.10
2023-03-26T11:40:45.452Z,2.10
2023-03-26T11:47:16.000Z,0.73
2023-03-26T11:50:26.061Z,1.38
2023-03-26T11:53:33.396Z,1.55
2023-03-26T11:57:05.829Z,0.52
2023-03-26T12:00:19.877Z,9.50
2023-03-26T12:03:25.024Z,2.08
2023-03-26T12:06:30.567Z,1.88
2023-03-26T12:09:34.389Z,0.93
2023-03-26T12:12:39.479Z,1.45
2023-03-26T12:15:52.054Z,0.43
2023-03-26T12:19:17.586Z,0.88
2023-03-26T12:22:32.910Z,1.88
2023-03-26T12:25:40.732Z,0.20
2023-03-26T12:28:50.990Z,0.47
2023-03-26T12:32:14.445Z,2.58
2023-03-26T12:35:20.029Z,0.40
2023-03-26T12:38:40.793Z,0.83
2023-03-26T12:42:36.682Z,2.20
2023-03-26T12:45:22.978Z,2.38
2023-03-26T12:48:32.249Z,1.25
2023-03-26T12:51:57.431Z,2.33
2023-03-26T12:55:12.536Z,2.38
2023-03-26T12:58:38.590Z,0.50
2023-03-26T13:02:11.591Z,1.45
2023-03-26T13:05:24.212Z,0.95
2023-03-26T13:09:03.432Z,1.85
2023-03-26T13:12:34.397Z,0.50
2023-03-26T13:15:46.498Z,1.95
2023-03-26T13:18:57.709Z,0.95
2023-03-26T13:22:56.950Z,1.33
2023-03-26T13:29:11.113Z,5.25
2023-03-26T13:32:16.992Z,7.32
2023-03-26T13:35:28.748Z,1.75
2023-03-26T13:39:24.886Z,4.47
2023-03-26T13:42:52.023Z,3.55
2023-03-26T13:46:25.543Z,0.50
2023-03-26T13:49:53.203Z,7.13
2023-03-26T13:53:21.663Z,0.45
2023-03-26T13:56:31.780Z,1.85
2023-03-26T14:00:03.020Z,1.33
2023-03-26T14:03:48.105Z,0.68
2023-03-26T14:07:13.467Z,6.55
2023-03-26T14:10:25.063Z,2.33
2023-03-26T14:13:41.740Z,2.72
2023-03-26T14:16:51.906Z,1.27
2023-03-26T14:20:28.261Z,0.35
2023-03-26T14:23:59.149Z,3.17
2023-03-26T14:27:22.583Z,2.25
2023-03-26T14:31:06.704Z,2.22
2023-03-26T14:34:13.397Z,1.05
2023-03-26T14:37:33.897Z,1.92
2023-03-26T14:41:03.524Z,2.97
2023-03-26T14:44:48.026Z,1.60
2023-03-26T14:48:30.158Z,1.77
2023-03-26T14:51:41.818Z,0.60
2023-03-26T14:54:47.332Z,4.88
2023-03-26T14:58:09.808Z,2.17
2023-03-26T15:01:44.660Z,2.38
2023-03-26T15:05:50.901Z,0.82
2023-03-26T15:09:13.271Z,0.88
2023-03-26T15:12:46.229Z,3.70
2023-03-26T15:16:01.808Z,1.00
2023-03-26T15:19:13.643Z,1.95
2023-03-26T15:22:41.135Z,0.10
2023-03-26T15:26:38.453Z,0.20
2023-03-26T15:29:49.804Z,0.43
2023-03-26T15:33:19.068Z,0.90
2023-03-26T15:37:03.556Z,0.55
2023-03-26T15:40:11.223Z,13.93
2023-03-26T15:43:17.165Z,24.33
2023-03-26T15:47:19.039Z,76.10
2023-03-26T15:50:42.146Z,0.90
2023-03-26T15:53:55.971Z,1.13
2023-03-26T15:57:23.306Z,0.70
2023-03-26T16:00:32.434Z,0.65
2023-03-26T16:03:43.493Z,0.57
2023-03-26T16:07:11.593Z,0.50
2023-03-26T16:10:37.581Z,10.75
2023-03-26T16:13:55.345Z,1.85
2023-03-26T16:17:02.547Z,0.20
2023-03-26T16:20:28.388Z,0.75
2023-03-26T16:23:47.616Z,0.57
2023-03-26T16:27:13.386Z,6.30
2023-03-26T16:30:18.335Z,3.58
2023-03-26T16:33:23.821Z,5.18
2023-03-26T16:36:36.094Z,5.28
2023-03-26T16:39:44.303Z,1.58
2023-03-26T16:43:12.243Z,7.38
2023-03-26T16:46:29.559Z,1.50
2023-03-26T16:50:14.548Z,0.70
2023-03-26T16:53:33.389Z,4.35
2023-03-26T16:56:51.019Z,2.15
2023-03-26T17:00:24.568Z,6.05
2023-03-26T17:04:19.929Z,1.30
2023-03-26T17:07:58.804Z,1.55
2023-03-26T17:11:10.672Z,1.27
2023-03-26T17:14:42.662Z,1.02
2023-03-26T17:17:51.802Z,1.65
2023-03-26T17:21:05.420Z,1.67
2023-03-26T17:24:27.316Z,3.50
2023-03-26T17:28:16.681Z,1.73
2023-03-26T17:31:26.955Z,1.30
2023-03-26T17:34:38.788Z,1.67
2023-03-26T17:37:46.786Z,1.50
2023-03-26T17:40:57.372Z,0.88
2023-03-26T17:44:00.713Z,1.20
2023-03-26T17:47:05.225Z,1.70
2023-03-26T17:50:14.384Z,4.95
2023-03-26T17:53:26.245Z,3.08
2023-03-26T17:56:30.452Z,3.58
2023-03-26T17:59:33.672Z,4.32
2023-03-26T18:02:42.950Z,12.07
2023-03-26T18:05:47.491Z,5.55
2023-03-26T18:09:11.519Z,7.55
2023-03-26T18:12:39.021Z,7.45
2023-03-26T18:16:34.450Z,6.47
2023-03-26T18:19:56.466Z,9.50
2023-03-26T18:23:13.483Z,9.00
2023-03-26T18:26:33.829Z,5.95
2023-03-26T18:29:38.050Z,2.33
2023-03-26T18:32:53.021Z,8.60
2023-03-26T18:35:56.671Z,8.43
2023-03-26T18:38:59.906Z,1.67
2023-03-26T18:42:02.871Z,3.45
2023-03-26T18:45:21.067Z,6.13
2023-03-26T18:48:25.500Z,1.85
2023-03-26T18:51:30.113Z,1.17
2023-03-26T18:54:36.039Z,1.87
2023-03-26T18:57:40.425Z,2.05
2023-03-26T19:00:44.827Z,3.80
2023-03-26T19:03:48.524Z,2.10
2023-03-26T19:06:55.852Z,4.82
2023-03-26T19:10:04.884Z,2.33
2023-03-26T19:13:15.686Z,0.98
2023-03-26T19:16:26.000Z,1.52
2023-03-26T19:19:37.421Z,28.63
2023-03-26T19:22:42.679Z,4.88
2023-03-26T19:26:02.157Z,23.13
2023-03-26T19:29:06.416Z,9.68
2023-03-26T19:32:22.428Z,3.05
2023-03-26T19:35:27.589Z,2.45
2023-03-26T19:38:39.318Z,1.70
2023-03-26T19:41:46.753Z,1.92
2023-03-26T19:44:51.889Z,1.70
2023-03-26T19:51:18.626Z,6.88
2023-03-26T19:51:21.432Z,6.30
2023-03-26T19:54:25.620Z,9.10
2023-03-26T19:57:33.379Z,13.70
2023-03-26T20:00:37.378Z,9.32
2023-03-26T20:03:42.763Z,6.28
2023-03-26T20:06:49.665Z,8.20
2023-03-26T20:09:53.665Z,101.82
2023-03-26T20:12:56.508Z,84.78
2023-03-26T20:16:11.144Z,106.22
2023-03-26T20:19:15.216Z,33.83
2023-03-26T20:22:23.966Z,10.27
2023-03-26T20:25:31.164Z,7.80
2023-03-26T20:28:42.364Z,45.42
2023-03-26T20:31:52.312Z,35.83
2023-03-26T20:34:55.383Z,8.20
2023-03-26T20:37:58.536Z,2.10
2023-03-26T20:41:02.212Z,11.48
2023-03-26T20:44:13.977Z,42.63
2023-03-26T20:47:17.083Z,98.47
2023-03-26T20:50:23.269Z,37.67
2023-03-26T20:53:26.322Z,1.45
2023-03-26T20:56:29.309Z,5.53
2023-03-26T20:59:32.067Z,4.75
2023-03-26T21:02:35.074Z,7.80
2023-03-26T21:05:39.517Z,44.78
2023-03-26T21:08:43.903Z,99.07
2023-03-26T21:12:02.250Z,21.63
2023-03-26T21:15:13.349Z,23.33
2023-03-26T21:18:19.902Z,7.80
2023-03-26T21:21:37.813Z,94.82
2023-03-26T21:24:57.505Z,73.78
2023-03-26T21:28:26.275Z,135.65
2023-03-26T21:31:38.074Z,74.18
2023-03-26T21:34:47.891Z,151.20
2023-03-26T21:37:59.221Z,230.30
2023-03-26T21:44:06.090Z,11.27
2023-03-26T21:47:09.965Z,5.63
2023-03-26T21:50:15.546Z,13.40
2023-03-26T21:53:18.654Z,13.82
2023-03-26T21:56:31.430Z,6.25
2023-03-26T21:59:40.143Z,3.35
2023-03-26T22:03:12.360Z,1.45
2023-03-26T22:06:43.275Z,5.65
2023-03-26T22:09:46.284Z,4.70
2023-03-26T22:12:49.476Z,6.03
2023-03-26T22:15:52.299Z,2.67
2023-03-26T22:18:54.910Z,1.90
2023-03-26T22:21:58.613Z,1.55
2023-03-26T22:25:01.519Z,27.92
2023-03-26T22:28:04.939Z,23.15
2023-03-26T22:31:09.390Z,2.47
2023-03-26T22:34:12.444Z,1.60
2023-03-26T22:37:16.428Z,4.20
2023-03-26T22:40:19.504Z,9.68
2023-03-26T22:43:22.166Z,2.88
2023-03-26T22:46:25.118Z,3.92
2023-03-26T22:49:30.483Z,5.32
2023-03-26T22:52:33.946Z,2.97
2023-03-26T22:55:36.746Z,7.30
2023-03-26T22:58:39.582Z,4.85
2023-03-26T23:01:42.318Z,5.95
2023-03-26T23:04:46.635Z,4.13
2023-03-26T23:07:49.932Z,3.85
2023-03-26T23:10:52.973Z,3.53
2023-03-26T23:13:55.952Z,2.78
2023-03-26T23:16:59.861Z,6.05
2023-03-26T23:20:06.517Z,5.05
2023-03-26T23:23:10.736Z,4.75
2023-03-26T23:26:14.871Z,4.15
2023-03-26T23:29:17.711Z,4.95
2023-03-26T23:32:24.703Z,5.55
2023-03-26T23:35:27.868Z,5.43
2023-03-26T23:38:43.665Z,5.72
2023-03-26T23:41:47.735Z,5.53
2023-03-26T23:44:50.751Z,6.82
2023-03-26T23:47:53.521Z,6.10
2023-03-26T23:51:03.151Z,7.97
2023-03-26T23:54:09.133Z,6.70
2023-03-26T23:57:12.071Z,7.47
